Time;durP1;ratioP1;P1;durP2;ratioP2;P2;SDS_P1;SDS_P2;PMS_P1;PMS_P2;Temp;Humidity;BMP_temperature;BMP_pressure;BME280_temperature;BME280_humidity;BME280_pressure;Samples;Min_cycle;Max_cycle;Signal;HPM_P1;HPM_P2
2022/06/13 00:00:11;;;;;;;;;;;;;;;;;;5060951;28;19923;-85
2022/06/13 00:02:57;;;;;;;;;;;;;;;;;;5092830;28;19919;-86
2022/06/13 00:05:44;;;;;;;;;;;;;;;;;;5068284;28;20275;-86
2022/06/13 00:08:30;;;;;;;;;;;;;;;;;;5060077;28;20390;-85
2022/06/13 00:11:17;;;;;;;;;;;;;;;;;;5090027;28;19923;-86
2022/06/13 00:14:03;;;;;;;;;;;;;;;;;;5073577;28;19915;-86
2022/06/13 00:16:49;;;;;;;;;;;;;;;;;;5069653;28;20321;-86
2022/06/13 00:19:36;;;;;;;;;;;;;;;;;;5075043;28;20397;-87
2022/06/13 00:22:22;;;;;;;;;;;;;;;;;;5079220;28;19931;-87
2022/06/13 00:25:09;;;;;;;;;;;;;;;;;;5091448;28;19923;-87
2022/06/13 00:27:56;;;;;;;;;;;;;;;;;;5078958;28;19919;-87
2022/06/13 00:30:42;;;;;;;;;;;;;;;;;;5096651;28;19916;-86
2022/06/13 00:33:28;;;;;;;;;;;;;;;;;;5071607;28;20364;-85
2022/06/13 00:36:15;;;;;;;;;;;;;;;;;;5086581;28;19920;-88
2022/06/13 00:39:05;;;;;;;;;;;;;;;;;;5083594;28;19958;-87
2022/06/13 00:41:51;;;;;;;;;;;;;;;;;;5096714;28;19938;-86
2022/06/13 00:44:41;;;;;;;;;;;;;;;;;;5098010;28;19920;-87
2022/06/13 00:47:27;;;;;;;;;;;;;;;;;;5080139;28;19931;-88
2022/06/13 00:50:14;;;;;;;;;;;;;;;;;;5080451;28;20280;-89
2022/06/13 00:53:00;;;;;;;;;;;;;;;;;;5085941;28;19922;-86
2022/06/13 00:55:46;;;;;;;;;;;;;;;;;;5090872;28;19916;-85
2022/06/13 00:58:33;;;;;;;;;;;;;;;;;;5084258;28;20421;-86
2022/06/13 01:01:19;;;;;;;;;;;;;;;;;;5088328;28;19916;-86
2022/06/13 01:04:06;;;;;;;;;;;;;;;;;;5064528;28;19924;-86
2022/06/13 01:06:56;;;;;;;;;;;;;;;;;;5071826;28;19912;-85
2022/06/13 01:12:53;;;;;;;;;;;;;;;;;;5079512;28;19920;-84
2022/06/13 01:15:40;;;;;;;;;;;;;;;;;;5081777;28;19916;-85
2022/06/13 01:18:27;;;;;;;;;;;;;;;;;;5083663;28;19923;-85
2022/06/13 01:21:14;;;;;;;;;;;;;;;;;;5068987;28;19920;-85
2022/06/13 01:24:00;;;;;;;;;;;;;;;;;;5070681;28;19925;-85
2022/06/13 01:26:47;;;;;;;;;;;;;;;;;;5082963;28;19938;-85
2022/06/13 01:29:33;;;;;;;;;;;;;;;;;;5093714;28;19908;-88
2022/06/13 01:32:20;;;;;;;;;;;;;;;;;;5089443;28;19912;-87
2022/06/13 01:35:06;;;;;;;;;;;;;;;;;;5078642;28;19916;-87
2022/06/13 01:37:53;;;;;;;;;;;;;;;;;;5069209;28;20350;-87
2022/06/13 01:40:39;;;;;;;;;;;;;;;;;;5067406;28;19935;-86
2022/06/13 01:43:26;;;;;;;;;;;;;;;;;;5070003;28;19924;-86
2022/06/13 01:46:12;;;;;;;;;;;;;;;;;;5067350;28;19913;-86
2022/06/13 01:48:59;;;;;;;;;;;;;;;;;;5059906;28;19912;-87
2022/06/13 01:51:45;;;;;;;;;;;;;;;;;;5074416;28;19919;-87
2022/06/13 01:54:32;;;;;;;;;;;;;;;;;;5084294;28;19912;-85
2022/06/13 01:57:18;;;;;;;;;;;;;;;;;;5092384;28;19923;-86
2022/06/13 02:00:05;;;;;;;;;;;;;;;;;;5079549;28;20307;-84
2022/06/13 02:02:51;;;;;;;;;;;;;;;;;;5090293;28;19912;-84
2022/06/13 02:05:38;;;;;;;;;;;;;;;;;;5078674;28;19920;-85
2022/06/13 02:08:24;;;;;;;;;;;;;;;;;;5075229;28;19909;-86
2022/06/13 02:11:11;;;;;;;;;;;;;;;;;;5060482;28;20295;-85
2022/06/13 02:14:00;;;;;;;;;;;;;;;;;;5074392;28;19919;-85
2022/06/13 02:16:46;;;;;;;;;;;;;;;;;;5083316;28;19925;-86
2022/06/13 02:19:33;;;;;;;;;;;;;;;;;;5080088;28;19912;-86
2022/06/13 02:22:19;;;;;;;;;;;;;;;;;;5071757;28;19912;-86
2022/06/13 02:25:06;;;;;;;;;;;;;;;;;;5083881;28;20362;-86
2022/06/13 02:27:52;;;;;;;;;;;;;;;;;;5075203;28;19913;-87
2022/06/13 02:30:39;;;;;;;;;;;;;;;;;;5074245;28;19916;-86
2022/06/13 02:33:28;;;;;;;;;;;;;;;;;;5071364;28;19909;-86
2022/06/13 02:36:14;;;;;;;;;;;;;;;;;;5069994;28;19912;-86
2022/06/13 02:39:01;;;;;;;;;;;;;;;;;;5085662;28;19935;-87
2022/06/13 02:41:50;;;;;;;;;;;;;;;;;;5079676;28;19923;-86
2022/06/13 02:44:36;;;;;;;;;;;;;;;;;;5072969;28;19920;-87
2022/06/13 02:47:23;;;;;;;;;;;;;;;;;;5068468;28;19912;-86
2022/06/13 02:50:09;;;;;;;;;;;;;;;;;;5074644;28;20261;-85
2022/06/13 02:52:56;;;;;;;;;;;;;;;;;;5072772;28;19915;-87
2022/06/13 02:55:42;;;;;;;;;;;;;;;;;;5084929;28;19923;-89
2022/06/13 02:58:29;;;;;;;;;;;;;;;;;;5071688;28;19909;-87
2022/06/13 03:01:15;;;;;;;;;;;;;;;;;;5076850;28;19912;-85
2022/06/13 03:04:02;;;;;;;;;;;;;;;;;;5075487;28;19917;-86
2022/06/13 03:06:48;;;;;;;;;;;;;;;;;;5079472;28;20299;-84
2022/06/13 03:09:35;;;;;;;;;;;;;;;;;;5076711;28;20296;-85
2022/06/13 03:12:22;;;;;;;;;;;;;;;;;;5082607;28;20387;-85
2022/06/13 03:15:08;;;;;;;;;;;;;;;;;;5085979;28;20376;-85
2022/06/13 03:17:55;;;;;;;;;;;;;;;;;;5073288;28;20352;-86
2022/06/13 03:20:42;;;;;;;;;;;;;;;;;;5088103;28;19923;-86
2022/06/13 03:23:28;;;;;;;;;;;;;;;;;;5083732;28;19920;-86
2022/06/13 03:26:15;;;;;;;;;;;;;;;;;;5084298;28;19920;-84
2022/06/13 03:29:03;;;;;;;;;;;;;;;;;;5086565;28;19918;-85
2022/06/13 03:31:50;;;;;;;;;;;;;;;;;;5080941;28;19908;-84
2022/06/13 03:34:36;;;;;;;;;;;;;;;;;;5057654;28;19916;-85
2022/06/13 03:37:23;;;;;;;;;;;;;;;;;;5079152;28;19950;-88
2022/06/13 03:40:09;;;;;;;;;;;;;;;;;;5068370;28;19920;-88
2022/06/13 03:42:56;;;;;;;;;;;;;;;;;;5078420;28;19919;-89
2022/06/13 03:45:42;;;;;;;;;;;;;;;;;;5067108;28;19939;-87
2022/06/13 03:48:29;;;;;;;;;;;;;;;;;;5086470;28;19935;-86
2022/06/13 03:51:15;;;;;;;;;;;;;;;;;;5072825;28;19930;-86
2022/06/13 03:54:02;;;;;;;;;;;;;;;;;;5077028;28;19923;-85
2022/06/13 03:56:48;;;;;;;;;;;;;;;;;;5074058;28;19912;-85
2022/06/13 03:59:35;;;;;;;;;;;;;;;;;;5076937;28;19912;-86
2022/06/13 04:02:21;;;;;;;;;;;;;;;;;;5081566;28;19912;-85
2022/06/13 04:05:08;;;;;;;;;;;;;;;;;;5072170;28;19927;-86
2022/06/13 04:07:54;;;;;;;;;;;;;;;;;;5066464;28;19915;-87
2022/06/13 04:10:41;;;;;;;;;;;;;;;;;;5071622;28;20280;-86
2022/06/13 04:13:30;;;;;;;;;;;;;;;;;;5082385;28;19918;-86
2022/06/13 04:16:16;;;;;;;;;;;;;;;;;;5080920;28;19912;-87
2022/06/13 04:19:05;;;;;;;;;;;;;;;;;;5073475;28;20399;-87
2022/06/13 04:21:55;;;;;;;;;;;;;;;;;;5075498;28;19920;-87
2022/06/13 04:24:41;;;;;;;;;;;;;;;;;;5060827;28;19943;-86
2022/06/13 04:27:28;;;;;;;;;;;;;;;;;;5082704;28;19912;-87
2022/06/13 04:30:17;;;;;;;;;;;;;;;;;;5067307;28;19917;-87
2022/06/13 04:33:04;;;;;;;;;;;;;;;;;;5062424;28;19922;-84
2022/06/13 04:35:50;;;;;;;;;;;;;;;;;;5080995;28;19931;-85
2022/06/13 04:38:46;;;;;;;;;;;;;;;;;;5078880;28;19947;-85
2022/06/13 04:41:35;;;;;;;;;;;;;;;;;;5072252;28;19916;-85
2022/06/13 04:44:22;;;;;;;;;;;;;;;;;;5067528;28;19935;-83
2022/06/13 04:47:08;;;;;;;;;;;;;;;;;;5074166;28;20312;-83
2022/06/13 04:49:55;;;;;;;;;;;;;;;;;;5078538;28;19915;-84
2022/06/13 04:52:41;;;;;;;;;;;;;;;;;;5071664;28;19916;-84
2022/06/13 04:55:27;;;;;;;;;;;;;;;;;;5079643;28;19923;-83
2022/06/13 04:58:14;;;;;;;;;;;;;;;;;;5071826;28;19923;-83
2022/06/13 05:01:01;;;;;;;;;;;;;;;;;;5079353;28;19915;-82
2022/06/13 05:03:48;;;;;;;;;;;;;;;;;;5077635;28;19913;-83
2022/06/13 05:06:36;;;;;;;;;;;;;;;;;;5079118;28;19912;-83
2022/06/13 05:09:23;;;;;;;;;;;;;;;;;;5070099;28;19909;-83
2022/06/13 05:12:09;;;;;;;;;;;;;;;;;;5073622;28;19909;-85
2022/06/13 05:14:56;;;;;;;;;;;;;;;;;;5078898;28;19912;-83
2022/06/13 05:17:45;;;;;;;;;;;;;;;;;;5081630;28;20292;-85
2022/06/13 05:20:31;;;;;;;;;;;;;;;;;;5072999;28;19908;-83
2022/06/13 05:23:18;;;;;;;;;;;;;;;;;;5074785;28;19923;-85
2022/06/13 05:26:04;;;;;;;;;;;;;;;;;;5076166;28;19923;-85
2022/06/13 05:28:51;;;;;;;;;;;;;;;;;;5060831;28;19908;-84
2022/06/13 05:31:37;;;;;;;;;;;;;;;;;;5061055;28;19912;-82
2022/06/13 05:34:27;;;;;;;;;;;;;;;;;;5080902;28;19922;-82
2022/06/13 05:37:13;;;;;;;;;;;;;;;;;;5078220;28;19919;-84
2022/06/13 05:40:00;;;;;;;;;;;;;;;;;;5076698;28;19920;-84
2022/06/13 05:42:46;;;;;;;;;;;;;;;;;;5074453;28;19919;-84
2022/06/13 05:45:33;;;;;;;;;;;;;;;;;;5075978;28;20585;-85
2022/06/13 05:48:19;;;;;;;;;;;;;;;;;;5074834;28;19919;-85
2022/06/13 05:51:06;;;;;;;;;;;;;;;;;;5081966;28;19922;-88
2022/06/13 05:53:52;;;;;;;;;;;;;;;;;;5076785;28;19917;-88
2022/06/13 05:56:39;;;;;;;;;;;;;;;;;;5084047;28;20287;-87
2022/06/13 05:59:25;;;;;;;;;;;;;;;;;;5071407;28;19912;-86
2022/06/13 06:02:12;;;;;;;;;;;;;;;;;;5076322;28;19920;-84
2022/06/13 06:04:58;;;;;;;;;;;;;;;;;;5085957;28;20287;-85
2022/06/13 06:07:45;;;;;;;;;;;;;;;;;;5062661;28;19913;-84
2022/06/13 06:10:31;;;;;;;;;;;;;;;;;;5067246;28;19908;-85
2022/06/13 06:13:18;;;;;;;;;;;;;;;;;;5087377;28;20019;-84
2022/06/13 06:16:04;;;;;;;;;;;;;;;;;;5090192;28;19916;-84
2022/06/13 06:18:51;;;;;;;;;;;;;;;;;;5070120;28;19912;-84
2022/06/13 06:21:37;;;;;;;;;;;;;;;;;;5079416;28;19908;-86
2022/06/13 06:24:24;;;;;;;;;;;;;;;;;;5071707;28;19923;-92
2022/06/13 06:27:10;;;;;;;;;;;;;;;;;;5067813;28;19935;-85
2022/06/13 06:29:57;;;;;;;;;;;;;;;;;;5076482;28;19920;-85
2022/06/13 06:32:43;;;;;;;;;;;;;;;;;;5076526;28;19939;-86
2022/06/13 06:35:30;;;;;;;;;;;;;;;;;;5082478;28;19908;-86
2022/06/13 06:38:17;;;;;;;;;;;;;;;;;;5080449;28;19931;-88
2022/06/13 06:41:03;;;;;;;;;;;;;;;;;;5074786;28;19919;-86
2022/06/13 06:43:50;;;;;;;;;;;;;;;;;;5070986;28;19916;-86
2022/06/13 06:46:36;;;;;;;;;;;;;;;;;;5076025;28;19912;-85
2022/06/13 06:49:23;;;;;;;;;;;;;;;;;;5057798;28;19916;-85
2022/06/13 06:52:09;;;;;;;;;;;;;;;;;;5066790;28;20384;-85
2022/06/13 07:01:11;;;;;;;;;;;;;;;;;;5072664;28;19918;-85
2022/06/13 07:03:57;;;;;;;;;;;;;;;;;;5076757;28;20296;-85
2022/06/13 07:06:44;;;;;;;;;;;;;;;;;;5075784;28;20395;-85
2022/06/13 07:09:33;;;;;;;;;;;;;;;;;;5081621;28;19908;-84
2022/06/13 07:12:19;;;;;;;;;;;;;;;;;;5068749;28;19912;-85
2022/06/13 07:15:08;;;;;;;;;;;;;;;;;;5079120;28;20402;-86
2022/06/13 07:17:55;;;;;;;;;;;;;;;;;;5079957;28;20003;-86
2022/06/13 07:20:41;;;;;;;;;;;;;;;;;;5078936;28;20265;-85
2022/06/13 07:23:28;;;;;;;;;;;;;;;;;;5059475;28;20276;-85
2022/06/13 07:26:14;;;;;;;;;;;;;;;;;;5067533;28;20038;-85
2022/06/13 07:29:01;;;;;;;;;;;;;;;;;;5069678;28;19908;-85
2022/06/13 07:31:50;;;;;;;;;;;;;;;;;;5070311;28;19920;-84
2022/06/13 07:34:36;;;;;;;;;;;;;;;;;;5060861;28;19912;-86
2022/06/13 07:40:44;;;;;;;;;;;;;;;;;;5015942;28;19910;-85
2022/06/13 07:43:31;;;;;;;;;;;;;;;;;;5078152;28;19912;-85
2022/06/13 07:46:18;;;;;;;;;;;;;;;;;;5079130;28;19916;-83
2022/06/13 07:49:04;;;;;;;;;;;;;;;;;;5086614;28;19916;-85
2022/06/13 07:51:51;;;;;;;;;;;;;;;;;;5067769;28;19920;-86
2022/06/13 07:54:37;;;;;;;;;;;;;;;;;;5060767;28;19937;-86
2022/06/13 07:57:24;;;;;;;;;;;;;;;;;;5075000;28;19919;-86
2022/06/13 08:00:11;;;;;;;;;;;;;;;;;;5069763;28;19908;-86
2022/06/13 08:02:57;;;;;;;;;;;;;;;;;;5074608;28;19920;-84
2022/06/13 08:05:44;;;;;;;;;;;;;;;;;;5074050;28;19920;-86
2022/06/13 08:08:31;;;;;;;;;;;;;;;;;;5060644;28;19908;-85
2022/06/13 08:11:20;;;;;;;;;;;;;;;;;;5067420;28;20465;-84
2022/06/13 08:14:07;;;;;;;;;;;;;;;;;;5087613;28;20571;-84
2022/06/13 08:16:55;;;;;;;;;;;;;;;;;;5079705;28;19923;-84
2022/06/13 08:20:02;;;;;;;;;;;;;;;;;;5083976;28;19908;-85
2022/06/13 08:22:48;;;;;;;;;;;;;;;;;;5092340;28;19915;-85
2022/06/13 08:25:36;;;;;;;;;;;;;;;;;;5067368;28;19923;-86
2022/06/13 08:28:23;;;;;;;;;;;;;;;;;;5078447;28;19913;-85
2022/06/13 08:31:09;;;;;;;;;;;;;;;;;;5071258;28;19912;-86
2022/06/13 08:33:56;;;;;;;;;;;;;;;;;;5085898;28;19923;-86
2022/06/13 08:36:42;;;;;;;;;;;;;;;;;;5086302;28;19919;-86
2022/06/13 08:39:29;;;;;;;;;;;;;;;;;;5063496;28;19920;-86
2022/06/13 08:42:15;;;;;;;;;;;;;;;;;;5075109;28;20458;-85
2022/06/13 08:45:07;;;;;;;;;;;;;;;;;;5076935;28;19916;-86
2022/06/13 08:47:54;;;;;;;;;;;;;;;;;;5079575;28;20005;-86
2022/06/13 08:50:40;;;;;;;;;;;;;;;;;;5099247;28;19915;-87
2022/06/13 08:53:30;;;;;;;;;;;;;;;;;;5072784;28;19916;-87
2022/06/13 08:56:16;;;;;;;;;;;;;;;;;;5084560;28;19912;-87
2022/06/13 08:59:22;;;;;;;;;;;;;;;;;;5076785;28;19923;-88
2022/06/13 09:02:11;;;;;;;;;;;;;;;;;;5063898;28;19908;-86
2022/06/13 09:04:58;;;;;;;;;;;;;;;;;;5078358;28;20524;-86
2022/06/13 09:07:44;;;;;;;;;;;;;;;;;;5075291;28;20544;-87
2022/06/13 09:10:31;;;;;;;;;;;;;;;;;;5074693;28;19909;-87
2022/06/13 09:13:18;;;;;;;;;;;;;;;;;;5072259;28;19919;-86
2022/06/13 09:16:07;;;;;;;;;;;;;;;;;;5077163;28;20715;-86
2022/06/13 09:18:53;;;;;;;;;;;;;;;;;;5082032;28;19917;-86
2022/06/13 09:21:40;;;;;;;;;;;;;;;;;;5089695;28;19919;-86
2022/06/13 09:24:27;;;;;;;;;;;;;;;;;;5079334;28;19927;-95
2022/06/13 09:27:13;;;;;;;;;;;;;;;;;;5083244;28;19951;-95
2022/06/13 09:30:05;;;;;;;;;;;;;;;;;;5091901;28;19909;-95
2022/06/13 09:36:01;;;;;;;;;;;;;;;;;;5102381;28;19899;-96
2022/06/13 09:42:20;;;;;;;;;;;;;;;;;;5100143;28;19915;-96
2022/06/13 09:45:20;;;;;;;;;;;;;;;;;;5092832;28;19916;-96
2022/06/13 11:51:49;;;;;;;;;;;;;;;;;;5105761;28;20279;-83
2022/06/13 11:54:35;;;;;;;;;;;;;;;;;;5101878;28;19908;-85
2022/06/13 11:57:22;;;;;;;;;;;;;;;;;;5103884;28;19915;-84
2022/06/13 12:00:08;;;;;;;;;;;;;;;;;;5102374;28;20283;-84
2022/06/13 12:02:55;;;;;;;;;;;;;;;;;;5090415;28;19915;-84
2022/06/13 12:05:41;;;;;;;;;;;;;;;;;;5084778;28;19920;-83
2022/06/13 12:08:28;;;;;;;;;;;;;;;;;;5093066;28;19909;-83
2022/06/13 12:11:14;;;;;;;;;;;;;;;;;;5095410;28;20275;-83
2022/06/13 12:14:01;;;;;;;;;;;;;;;;;;5089873;28;19920;-85
2022/06/13 12:16:48;;;;;;;;;;;;;;;;;;5074429;28;19919;-83
2022/06/13 12:19:34;;;;;;;;;;;;;;;;;;5080138;28;19920;-84
2022/06/13 12:22:21;;;;;;;;;;;;;;;;;;5083921;28;20379;-84
2022/06/13 12:25:30;;;;;;;;;;;;;;;;;;5079203;28;19920;-83
2022/06/13 12:28:17;;;;;;;;;;;;;;;;;;5077089;28;20375;-84
2022/06/13 12:31:06;;;;;;;;;;;;;;;;;;5090878;28;19923;-84
2022/06/13 12:33:55;;;;;;;;;;;;;;;;;;5080461;28;19923;-84
2022/06/13 12:36:41;;;;;;;;;;;;;;;;;;5078120;28;20498;-85
2022/06/13 12:39:30;;;;;;;;;;;;;;;;;;5082515;28;19916;-84
2022/06/13 12:42:17;;;;;;;;;;;;;;;;;;5076300;28;19926;-85
2022/06/13 12:45:03;;;;;;;;;;;;;;;;;;5078539;28;19931;-84
2022/06/13 12:47:50;;;;;;;;;;;;;;;;;;5086482;28;19934;-84
2022/06/13 12:50:36;;;;;;;;;;;;;;;;;;5085291;28;19996;-84
2022/06/13 12:53:23;;;;;;;;;;;;;;;;;;5083649;28;19924;-83
2022/06/13 12:56:09;;;;;;;;;;;;;;;;;;5083692;28;19908;-84
2022/06/13 12:58:57;;;;;;;;;;;;;;;;;;5085862;28;20046;-85
2022/06/13 13:01:43;;;;;;;;;;;;;;;;;;5082723;28;20392;-84
2022/06/13 13:04:30;;;;;;;;;;;;;;;;;;5074645;28;19920;-85
2022/06/13 13:07:16;;;;;;;;;;;;;;;;;;5079967;28;19916;-83
2022/06/13 13:10:03;;;;;;;;;;;;;;;;;;5083059;28;20352;-85
2022/06/13 13:12:49;;;;;;;;;;;;;;;;;;5090730;28;19908;-83
2022/06/13 13:15:36;;;;;;;;;;;;;;;;;;5089743;28;19912;-84
2022/06/13 13:18:22;;;;;;;;;;;;;;;;;;5085734;28;19931;-85
2022/06/13 13:21:09;;;;;;;;;;;;;;;;;;5082930;28;19931;-84
2022/06/13 13:23:55;;;;;;;;;;;;;;;;;;5083029;28;19916;-84
2022/06/13 13:26:47;;;;;;;;;;;;;;;;;;5077916;28;20295;-85
2022/06/13 13:29:33;;;;;;;;;;;;;;;;;;5084080;28;20722;-84
2022/06/13 13:32:20;;;;;;;;;;;;;;;;;;5084687;28;20295;-84
2022/06/13 13:35:06;;;;;;;;;;;;;;;;;;5078370;28;19923;-84
2022/06/13 13:37:53;;;;;;;;;;;;;;;;;;5085459;28;19916;-84
2022/06/13 13:40:41;;;;;;;;;;;;;;;;;;5078344;28;19919;-83
2022/06/13 13:43:28;;;;;;;;;;;;;;;;;;5088908;28;20402;-84
2022/06/13 13:46:14;;;;;;;;;;;;;;;;;;5075279;28;19924;-84
2022/06/13 13:49:01;;;;;;;;;;;;;;;;;;5078705;28;19915;-84
2022/06/13 13:51:47;;;;;;;;;;;;;;;;;;5015730;28;1768469;-83
2022/06/13 13:54:34;;;;;;;;;;;;;;;;;;5084274;28;19913;-84
2022/06/13 13:57:21;;;;;;;;;;;;;;;;;;5083117;28;19916;-84
2022/06/13 14:00:07;;;;;;;;;;;;;;;;;;5088036;28;20383;-83
2022/06/13 14:02:54;;;;;;;;;;;;;;;;;;5074551;28;19908;-84
2022/06/13 14:05:40;;;;;;;;;;;;;;;;;;5081951;28;19920;-83
2022/06/13 14:08:27;;;;;;;;;;;;;;;;;;5075710;28;19923;-83
2022/06/13 14:11:14;;;;;;;;;;;;;;;;;;5061681;28;20283;-84
2022/06/13 14:14:01;;;;;;;;;;;;;;;;;;5081280;28;19912;-83
2022/06/13 14:16:48;;;;;;;;;;;;;;;;;;5080662;28;20430;-84
2022/06/13 14:19:37;;;;;;;;;;;;;;;;;;5081929;28;19912;-85
2022/06/13 14:22:23;;;;;;;;;;;;;;;;;;5091534;28;20409;-82
2022/06/13 14:25:10;;;;;;;;;;;;;;;;;;5079141;28;19916;-85
2022/06/13 14:27:56;;;;;;;;;;;;;;;;;;5080762;28;19915;-85
2022/06/13 14:36:54;;;;;;;;;;;;;;;;;;5077777;28;19923;-79
2022/06/13 14:39:41;;;;;;;;;;;;;;;;;;5085239;28;20288;-81
2022/06/13 14:42:30;;;;;;;;;;;;;;;;;;5083940;28;19912;-82
2022/06/13 14:45:16;;;;;;;;;;;;;;;;;;5081641;28;19912;-81
2022/06/13 14:48:07;;;;;;;;;;;;;;;;;;5077984;28;20303;-81
2022/06/13 14:50:54;;;;;;;;;;;;;;;;;;5080961;28;19926;-82
2022/06/13 14:53:41;;;;;;;;;;;;;;;;;;5083020;28;19908;-81
2022/06/13 14:56:27;;;;;;;;;;;;;;;;;;5093978;28;19919;-82
2022/06/13 14:59:14;;;;;;;;;;;;;;;;;;5077681;28;19908;-82
2022/06/13 15:02:00;;;;;;;;;;;;;;;;;;5083770;28;19913;-81
2022/06/13 15:04:47;;;;;;;;;;;;;;;;;;5075820;28;19912;-81
2022/06/13 15:07:33;;;;;;;;;;;;;;;;;;5081028;28;19921;-82
2022/06/13 15:10:19;;;;;;;;;;;;;;;;;;5078902;28;19916;-81
2022/06/13 15:13:06;;;;;;;;;;;;;;;;;;5075727;28;20043;-82
2022/06/13 15:15:52;;;;;;;;;;;;;;;;;;5079085;28;20363;-84
2022/06/13 15:18:39;;;;;;;;;;;;;;;;;;5077431;28;20288;-82
2022/06/13 15:21:26;;;;;;;;;;;;;;;;;;5082623;28;19916;-85
2022/06/13 15:24:12;;;;;;;;;;;;;;;;;;5078607;28;19916;-84
2022/06/13 15:26:59;;;;;;;;;;;;;;;;;;5070241;28;19927;-85
2022/06/13 15:29:51;;;;;;;;;;;;;;;;;;5087716;28;20520;-83
2022/06/13 15:32:37;;;;;;;;;;;;;;;;;;5074679;28;20268;-84
2022/06/13 15:35:24;;;;;;;;;;;;;;;;;;5076482;28;19912;-85
2022/06/13 15:38:10;;;;;;;;;;;;;;;;;;5071527;28;19909;-85
2022/06/13 15:40:57;;;;;;;;;;;;;;;;;;5085452;28;19999;-84
2022/06/13 15:43:45;;;;;;;;;;;;;;;;;;5087412;28;20422;-84
2022/06/13 15:46:32;;;;;;;;;;;;;;;;;;5086499;28;19916;-85
2022/06/13 15:49:19;;;;;;;;;;;;;;;;;;5086146;28;19908;-84
2022/06/13 15:52:05;;;;;;;;;;;;;;;;;;5086541;28;19920;-84
2022/06/13 15:54:52;;;;;;;;;;;;;;;;;;5077936;28;19908;-84
2022/06/13 15:57:38;;;;;;;;;;;;;;;;;;5092928;28;19918;-84
2022/06/13 16:00:24;;;;;;;;;;;;;;;;;;5085843;28;19912;-85
2022/06/13 16:03:11;;;;;;;;;;;;;;;;;;5085984;28;19908;-83
2022/06/13 16:05:58;;;;;;;;;;;;;;;;;;5088660;28;19923;-83
2022/06/13 16:08:45;;;;;;;;;;;;;;;;;;5077107;28;19908;-83
2022/06/13 16:11:31;;;;;;;;;;;;;;;;;;5083354;28;20356;-84
2022/06/13 16:14:20;;;;;;;;;;;;;;;;;;5088020;28;19915;-83
2022/06/13 16:17:07;;;;;;;;;;;;;;;;;;5087498;28;19916;-83
2022/06/13 16:19:53;;;;;;;;;;;;;;;;;;5081442;28;20418;-83
2022/06/13 16:22:40;;;;;;;;;;;;;;;;;;5087773;28;19908;-83
2022/06/13 16:25:26;;;;;;;;;;;;;;;;;;5083730;28;19920;-83
2022/06/13 16:28:15;;;;;;;;;;;;;;;;;;5083003;28;19916;-83
2022/06/13 16:31:01;;;;;;;;;;;;;;;;;;5078973;28;19997;-83
2022/06/13 16:33:48;;;;;;;;;;;;;;;;;;5082965;28;19912;-84
2022/06/13 16:36:37;;;;;;;;;;;;;;;;;;5086622;28;19918;-86
2022/06/13 16:39:23;;;;;;;;;;;;;;;;;;5082642;28;19914;-88
2022/06/13 16:42:09;;;;;;;;;;;;;;;;;;5080821;28;19918;-87
2022/06/13 16:44:56;;;;;;;;;;;;;;;;;;5085216;28;19916;-86
2022/06/13 16:47:44;;;;;;;;;;;;;;;;;;5081838;28;19923;-79
2022/06/13 16:50:31;;;;;;;;;;;;;;;;;;5081445;28;19920;-80
2022/06/13 16:53:17;;;;;;;;;;;;;;;;;;5086511;28;19937;-75
2022/06/13 16:56:04;;;;;;;;;;;;;;;;;;5084173;28;19920;-75
2022/06/13 16:58:50;;;;;;;;;;;;;;;;;;5078845;28;19919;-77
2022/06/13 17:01:37;;;;;;;;;;;;;;;;;;5083902;28;19919;-76
2022/06/13 17:04:23;;;;;;;;;;;;;;;;;;5085977;28;20407;-77
2022/06/13 17:07:09;;;;;;;;;;;;;;;;;;5084484;28;19917;-77
2022/06/13 17:09:56;;;;;;;;;;;;;;;;;;5081153;28;19912;-77
2022/06/13 17:12:43;;;;;;;;;;;;;;;;;;5077213;28;19922;-77
2022/06/13 17:15:29;;;;;;;;;;;;;;;;;;5078993;28;19912;-76
2022/06/13 17:18:16;;;;;;;;;;;;;;;;;;5078353;28;19915;-76
2022/06/13 17:21:02;;;;;;;;;;;;;;;;;;5082347;28;19916;-74
2022/06/13 17:23:49;;;;;;;;;;;;;;;;;;5079993;28;20288;-79
2022/06/13 17:32:46;;;;;;;;;;;;;;;;;;5079088;28;20385;-80
2022/06/13 17:35:32;;;;;;;;;;;;;;;;;;5087633;28;19912;-79
2022/06/13 17:38:19;;;;;;;;;;;;;;;;;;5082640;28;19919;-77
2022/06/13 17:41:06;;;;;;;;;;;;;;;;;;5093873;28;19912;-79
2022/06/13 17:43:54;;;;;;;;;;;;;;;;;;5083605;28;20279;-77
2022/06/13 17:46:40;;;;;;;;;;;;;;;;;;5084314;28;19923;-77
2022/06/13 17:49:27;;;;;;;;;;;;;;;;;;5083953;28;19928;-77
2022/06/13 17:52:13;;;;;;;;;;;;;;;;;;5077068;28;19932;-78
2022/06/13 17:55:00;;;;;;;;;;;;;;;;;;5082981;28;19918;-76
2022/06/13 17:57:46;;;;;;;;;;;;;;;;;;5084119;28;19912;-77
2022/06/13 18:00:33;;;;;;;;;;;;;;;;;;5081898;28;19912;-77
2022/06/13 18:03:19;;;;;;;;;;;;;;;;;;5085183;28;19912;-76
2022/06/13 18:06:06;;;;;;;;;;;;;;;;;;5096565;28;19916;-74
2022/06/13 18:08:52;;;;;;;;;;;;;;;;;;5086035;28;19918;-78
2022/06/13 18:11:39;;;;;;;;;;;;;;;;;;5081994;28;19911;-79
2022/06/13 18:14:25;;;;;;;;;;;;;;;;;;5083312;28;19912;-83
2022/06/13 18:17:12;;;;;;;;;;;;;;;;;;5081329;28;20376;-79
2022/06/13 18:19:58;;;;;;;;;;;;;;;;;;5076464;28;19915;-80
2022/06/13 18:22:45;;;;;;;;;;;;;;;;;;5084901;28;19908;-83
2022/06/13 18:25:31;;;;;;;;;;;;;;;;;;5084238;28;19920;-80
2022/06/13 18:28:18;;;;;;;;;;;;;;;;;;5078972;28;19908;-82
2022/06/13 18:31:04;;;;;;;;;;;;;;;;;;5085259;28;19924;-82
2022/06/13 18:33:50;;;;;;;;;;;;;;;;;;5082725;28;20276;-81
2022/06/13 18:36:37;;;;;;;;;;;;;;;;;;5078640;28;19916;-77
2022/06/13 18:39:23;;;;;;;;;;;;;;;;;;5078920;28;19913;-79
2022/06/13 18:42:10;;;;;;;;;;;;;;;;;;5083228;28;19920;-78
2022/06/13 18:44:56;;;;;;;;;;;;;;;;;;5077826;28;19912;-78
2022/06/13 18:47:43;;;;;;;;;;;;;;;;;;5082660;28;19924;-79
2022/06/13 18:50:29;;;;;;;;;;;;;;;;;;5072388;28;20375;-78
2022/06/13 18:53:16;;;;;;;;;;;;;;;;;;5082673;28;19908;-77
2022/06/13 18:56:02;;;;;;;;;;;;;;;;;;5085355;28;19918;-77
2022/06/13 18:58:49;;;;;;;;;;;;;;;;;;5083936;28;19908;-79
2022/06/13 19:01:35;;;;;;;;;;;;;;;;;;5078157;28;19908;-77
2022/06/13 19:04:22;;;;;;;;;;;;;;;;;;5081644;28;19918;-77
2022/06/13 19:07:10;;;;;;;;;;;;;;;;;;5097762;28;19923;-77
2022/06/13 19:09:56;;;;;;;;;;;;;;;;;;5082675;28;19912;-78
2022/06/13 19:12:45;;;;;;;;;;;;;;;;;;5090542;28;19914;-79
2022/06/13 19:15:31;;;;;;;;;;;;;;;;;;5084231;28;19916;-80
2022/06/13 19:18:18;;;;;;;;;;;;;;;;;;5083658;28;19950;-78
2022/06/13 19:21:14;;;;;;;;;;;;;;;;;;5074577;28;19923;-78
2022/06/13 19:24:00;;;;;;;;;;;;;;;;;;5081250;28;19916;-77
2022/06/13 19:26:47;;;;;;;;;;;;;;;;;;5079269;28;20403;-75
2022/06/13 19:29:36;;;;;;;;;;;;;;;;;;5083106;28;19908;-78
2022/06/13 19:32:22;;;;;;;;;;;;;;;;;;5085039;28;20376;-78
2022/06/13 19:35:09;;;;;;;;;;;;;;;;;;5084696;28;19908;-82
2022/06/13 19:37:57;;;;;;;;;;;;;;;;;;5076793;28;19912;-81
2022/06/13 19:40:43;;;;;;;;;;;;;;;;;;5079722;28;19916;-81
2022/06/13 19:43:30;;;;;;;;;;;;;;;;;;5077679;28;19927;-78
2022/06/13 19:46:16;;;;;;;;;;;;;;;;;;5060185;28;19912;-81
2022/06/13 19:49:03;;;;;;;;;;;;;;;;;;5071296;28;19916;-79
2022/06/13 19:51:49;;;;;;;;;;;;;;;;;;5080262;28;20288;-78
2022/06/13 19:54:36;;;;;;;;;;;;;;;;;;5076746;28;19916;-76
2022/06/13 19:57:22;;;;;;;;;;;;;;;;;;5074428;28;20380;-77
2022/06/13 20:00:08;;;;;;;;;;;;;;;;;;5076601;28;19915;-75
2022/06/13 20:02:55;;;;;;;;;;;;;;;;;;5066818;28;20506;-75
2022/06/13 20:08:47;;;;;;;;;;;;;;;;;;5075498;28;19916;-73
2022/06/13 20:11:43;;;;;;;;;;;;;;;;;;5077349;28;19930;-79
2022/06/13 20:14:32;;;;;;;;;;;;;;;;;;5082362;28;19923;-76
2022/06/13 20:17:18;;;;;;;;;;;;;;;;;;5075790;28;19923;-76
2022/06/13 20:20:07;;;;;;;;;;;;;;;;;;5078678;28;19921;-74
2022/06/13 20:22:53;;;;;;;;;;;;;;;;;;5077792;28;19908;-75
2022/06/13 20:25:40;;;;;;;;;;;;;;;;;;5077010;28;19908;-75
2022/06/13 20:28:26;;;;;;;;;;;;;;;;;;5075753;28;19916;-76
2022/06/13 20:31:13;;;;;;;;;;;;;;;;;;5061067;28;19912;-80
2022/06/13 20:34:01;;;;;;;;;;;;;;;;;;5081916;28;19912;-77
2022/06/13 20:36:48;;;;;;;;;;;;;;;;;;5087143;28;19930;-76
2022/06/13 20:39:34;;;;;;;;;;;;;;;;;;5080273;28;19912;-75
2022/06/13 20:42:21;;;;;;;;;;;;;;;;;;5086711;28;19923;-77
2022/06/13 20:45:07;;;;;;;;;;;;;;;;;;5072477;28;19912;-80
2022/06/13 20:47:54;;;;;;;;;;;;;;;;;;5067028;28;19908;-77
2022/06/13 20:50:40;;;;;;;;;;;;;;;;;;5082787;28;19921;-77
2022/06/13 20:53:27;;;;;;;;;;;;;;;;;;5084261;28;19917;-75
2022/06/13 20:56:14;;;;;;;;;;;;;;;;;;5079045;28;19923;-75
2022/06/13 20:59:00;;;;;;;;;;;;;;;;;;5077306;28;19909;-79
2022/06/13 21:01:47;;;;;;;;;;;;;;;;;;5081122;28;19983;-81
2022/06/13 21:04:34;;;;;;;;;;;;;;;;;;5081751;28;19912;-77
2022/06/13 21:07:21;;;;;;;;;;;;;;;;;;5076585;28;20261;-78
2022/06/13 21:10:08;;;;;;;;;;;;;;;;;;5075776;28;19912;-76
2022/06/13 21:12:54;;;;;;;;;;;;;;;;;;5080441;28;20383;-76
2022/06/13 21:15:41;;;;;;;;;;;;;;;;;;5073650;28;20380;-80
2022/06/13 21:18:32;;;;;;;;;;;;;;;;;;5066926;28;19916;-76
2022/06/13 21:21:24;;;;;;;;;;;;;;;;;;5070855;28;19908;-79
2022/06/13 21:24:10;;;;;;;;;;;;;;;;;;5074948;28;19908;-75
2022/06/13 21:26:57;;;;;;;;;;;;;;;;;;5075214;28;20347;-76
2022/06/13 21:29:44;;;;;;;;;;;;;;;;;;5076639;28;19931;-77
2022/06/13 21:32:31;;;;;;;;;;;;;;;;;;5075207;28;20539;-75
2022/06/13 21:35:17;;;;;;;;;;;;;;;;;;5085892;28;20012;-76
2022/06/13 21:38:06;;;;;;;;;;;;;;;;;;5078372;28;19917;-75